createdAt,value
2017-12-23T00:01:30.160Z,8.73
2017-12-23T00:03:58.660Z,9.93
2017-12-23T00:06:26.168Z,9.60
2017-12-23T00:08:53.699Z,9.02
2017-12-23T00:11:21.217Z,9.50
2017-12-23T00:13:48.752Z,8.20
2017-12-23T00:16:16.259Z,9.50
2017-12-23T00:18:45.317Z,9.63
2017-12-23T00:21:15.803Z,9.10
2017-12-23T00:23:45.260Z,9.65
2017-12-23T00:26:14.365Z,9.43
2017-12-23T00:28:43.611Z,9.43
2017-12-23T00:31:13.477Z,8.43
2017-12-23T00:33:41.018Z,8.93
2017-12-23T00:36:08.547Z,8.63
2017-12-23T00:38:36.067Z,9.70
2017-12-23T00:41:03.641Z,10.45
2017-12-23T00:43:31.124Z,9.13
2017-12-23T00:45:58.656Z,10.90
2017-12-23T00:48:26.178Z,9.32
2017-12-23T00:50:53.734Z,10.82
2017-12-23T00:53:21.239Z,10.20
2017-12-23T00:55:48.750Z,9.98
2017-12-23T00:58:16.286Z,10.15
2017-12-23T01:00:43.786Z,10.90
2017-12-23T01:03:11.300Z,10.68
2017-12-23T01:05:39.559Z,9.40
2017-12-23T01:08:07.064Z,8.82
2017-12-23T01:10:34.565Z,10.13
2017-12-23T01:13:02.090Z,9.80
2017-12-23T01:15:29.632Z,10.50
2017-12-23T01:17:57.156Z,7.12
2017-12-23T01:20:24.669Z,9.60
2017-12-23T01:22:52.325Z,9.60
2017-12-23T01:25:19.887Z,9.75
2017-12-23T01:27:48.446Z,8.50
2017-12-23T01:30:15.988Z,9.60
2017-12-23T01:32:43.520Z,9.07
2017-12-23T01:35:11.128Z,8.82
2017-12-23T01:37:39.406Z,10.00
2017-12-23T01:40:06.939Z,9.30
2017-12-23T01:42:34.462Z,8.30
2017-12-23T01:45:01.999Z,9.63
2017-12-23T01:47:30.280Z,9.48
2017-12-23T01:49:58.577Z,9.70
2017-12-23T01:52:26.087Z,8.70
2017-12-23T01:54:53.595Z,8.95
2017-12-23T01:57:21.146Z,10.17
2017-12-23T01:59:48.643Z,8.23
2017-12-23T02:02:16.175Z,8.77
2017-12-23T02:04:43.696Z,9.07
2017-12-23T02:07:11.196Z,7.57
2017-12-23T02:09:38.787Z,6.60
2017-12-23T02:12:06.370Z,7.90
2017-12-23T02:14:33.874Z,9.68
2017-12-23T02:17:01.418Z,8.85
2017-12-23T02:19:29.690Z,9.05
2017-12-23T02:21:58.735Z,10.02
2017-12-23T02:24:26.274Z,9.32
2017-12-23T02:26:53.794Z,8.45
2017-12-23T02:29:21.300Z,9.50
2017-12-23T02:31:48.815Z,9.90
2017-12-23T02:34:17.102Z,10.02
2017-12-23T02:36:45.382Z,9.20
2017-12-23T02:39:13.723Z,11.18
2017-12-23T02:41:41.238Z,8.70
2017-12-23T02:44:08.735Z,10.82
2017-12-23T02:46:36.331Z,11.43
2017-12-23T02:49:03.835Z,10.65
2017-12-23T02:51:31.362Z,13.10
2017-12-23T02:53:59.629Z,11.63
2017-12-23T02:56:27.914Z,12.00
2017-12-23T02:58:55.423Z,12.37
2017-12-23T03:01:22.925Z,11.75
2017-12-23T03:03:50.448Z,11.63
2017-12-23T03:06:17.976Z,12.02
2017-12-23T03:08:45.549Z,12.85
2017-12-23T03:11:13.068Z,12.65
2017-12-23T03:13:40.578Z,12.30
2017-12-23T03:16:08.112Z,13.00
2017-12-23T03:18:35.668Z,12.50
2017-12-23T03:21:03.196Z,12.20
2017-12-23T03:23:30.702Z,13.55
2017-12-23T03:25:58.217Z,13.13
2017-12-23T03:28:26.480Z,13.77
2017-12-23T03:30:54.767Z,11.73
2017-12-23T03:33:23.089Z,12.73
2017-12-23T03:35:50.611Z,12.32
2017-12-23T03:38:18.170Z,10.40
2017-12-23T03:40:46.452Z,12.52
2017-12-23T03:43:15.875Z,12.20
2017-12-23T03:45:43.416Z,13.18
2017-12-23T03:48:11.699Z,13.30
2017-12-23T03:50:39.970Z,11.38
2017-12-23T03:53:08.300Z,11.02
2017-12-23T03:55:35.832Z,11.60
2017-12-23T03:58:03.358Z,13.80
2017-12-23T04:00:31.677Z,12.80
2017-12-23T04:02:59.175Z,12.25
2017-12-23T04:05:26.675Z,13.55
2017-12-23T04:07:54.176Z,11.18
2017-12-23T04:10:21.665Z,11.50
2017-12-23T04:12:49.190Z,11.10
2017-12-23T04:15:16.714Z,10.43
2017-12-23T04:17:44.234Z,11.38
2017-12-23T04:20:12.533Z,11.32
2017-12-23T04:22:40.042Z,10.60
2017-12-23T04:25:07.546Z,12.18
2017-12-23T04:27:35.062Z,11.52
2017-12-23T04:30:02.561Z,12.02
2017-12-23T04:32:30.921Z,10.57
2017-12-23T04:34:58.427Z,9.57
2017-12-23T04:37:25.935Z,12.32
2017-12-23T04:39:53.479Z,11.23
2017-12-23T04:42:20.967Z,12.27
2017-12-23T04:44:48.459Z,12.10
2017-12-23T04:47:15.979Z,12.68
2017-12-23T04:49:44.298Z,13.75
2017-12-23T04:52:11.803Z,12.05
2017-12-23T04:54:39.327Z,10.63
2017-12-23T04:57:06.857Z,12.25
2017-12-23T04:59:34.357Z,13.62
2017-12-23T05:08:46.893Z,11.27
2017-12-23T05:11:15.361Z,10.68
2017-12-23T05:13:42.903Z,11.90
2017-12-23T05:16:10.415Z,11.75
2017-12-23T05:18:37.914Z,11.15
2017-12-23T05:21:05.419Z,12.80
2017-12-23T05:23:32.930Z,12.13
2017-12-23T05:26:00.448Z,11.90
2017-12-23T05:28:27.964Z,13.02
2017-12-23T05:30:55.495Z,10.20
2017-12-23T05:33:23.118Z,10.57
2017-12-23T05:35:50.624Z,10.20
2017-12-23T05:38:18.132Z,11.05
2017-12-23T05:40:45.641Z,11.10
2017-12-23T05:43:13.913Z,13.05
2017-12-23T05:45:42.176Z,11.27
2017-12-23T05:48:09.679Z,11.40
2017-12-23T05:50:37.187Z,11.65
2017-12-23T05:53:04.679Z,15.40
2017-12-23T05:55:32.208Z,11.55
2017-12-23T05:57:59.715Z,12.18
2017-12-23T06:00:27.228Z,13.45
2017-12-23T06:02:54.732Z,11.60
2017-12-23T06:05:22.243Z,12.30
2017-12-23T06:07:49.758Z,12.65
2017-12-23T06:10:17.250Z,11.68
2017-12-23T06:12:44.766Z,14.77
2017-12-23T06:15:12.278Z,15.18
2017-12-23T06:17:40.583Z,15.00
2017-12-23T06:20:08.104Z,15.20
2017-12-23T06:22:35.630Z,13.85
2017-12-23T06:25:03.144Z,16.80
2017-12-23T06:27:31.430Z,15.13
2017-12-23T06:29:59.772Z,17.90
2017-12-23T06:32:27.268Z,20.58
2017-12-23T06:34:54.761Z,16.40
2017-12-23T06:37:22.303Z,15.82
2017-12-23T06:39:49.824Z,18.08
2017-12-23T06:42:17.333Z,15.68
2017-12-23T06:44:44.839Z,17.45
2017-12-23T06:47:12.348Z,16.40
2017-12-23T06:49:39.893Z,17.73
2017-12-23T06:52:07.409Z,19.08
2017-12-23T06:54:34.941Z,19.85
2017-12-23T06:57:02.452Z,18.30
2017-12-23T06:59:29.961Z,19.33
2017-12-23T07:01:57.472Z,20.77
2017-12-23T07:04:25.742Z,20.40
2017-12-23T07:06:54.020Z,19.07
2017-12-23T07:09:22.301Z,20.98
2017-12-23T07:11:50.591Z,18.45
2017-12-23T07:14:18.103Z,21.60
2017-12-23T07:16:45.605Z,19.10
2017-12-23T07:19:13.102Z,20.65
2017-12-23T07:21:40.616Z,21.00
2017-12-23T07:24:08.880Z,22.27
2017-12-23T07:26:36.375Z,23.38
2017-12-23T07:29:03.875Z,22.80
2017-12-23T07:31:31.371Z,20.48
2017-12-23T07:33:58.927Z,21.67
2017-12-23T07:36:26.406Z,21.73
2017-12-23T07:38:53.897Z,22.95
2017-12-23T07:41:21.443Z,20.58
2017-12-23T07:43:48.969Z,21.90
2017-12-23T07:46:16.479Z,18.95
2017-12-23T07:48:44.015Z,19.42
2017-12-23T07:51:11.552Z,21.10
2017-12-23T07:53:39.829Z,21.87
2017-12-23T07:56:08.096Z,19.92
2017-12-23T07:58:36.412Z,18.50
2017-12-23T08:01:03.916Z,21.80
2017-12-23T08:03:31.427Z,17.30
2017-12-23T08:05:58.944Z,18.25
2017-12-23T08:08:26.440Z,20.45
2017-12-23T08:10:53.955Z,21.02
2017-12-23T08:13:21.458Z,19.33
2017-12-23T08:15:48.987Z,19.35
2017-12-23T08:18:17.303Z,17.87
2017-12-23T08:20:44.794Z,17.33
2017-12-23T08:23:12.334Z,21.33
2017-12-23T08:25:39.834Z,18.85
2017-12-23T08:28:07.331Z,18.20
2017-12-23T08:30:34.866Z,16.70
2017-12-23T08:33:03.144Z,20.92
2017-12-23T08:35:30.682Z,16.90
2017-12-23T08:37:58.195Z,18.60
2017-12-23T08:40:25.720Z,18.85
2017-12-23T08:42:53.251Z,18.57
2017-12-23T08:45:20.770Z,15.10
2017-12-23T08:47:48.271Z,19.87
2017-12-23T08:50:15.769Z,16.23
2017-12-23T08:52:43.281Z,16.15
2017-12-23T08:55:10.804Z,19.80
2017-12-23T08:57:38.334Z,17.30
2017-12-23T09:00:05.864Z,16.35
2017-12-23T09:02:33.381Z,17.30
2017-12-23T09:05:00.925Z,15.65
2017-12-23T09:07:28.446Z,17.55
2017-12-23T09:09:55.945Z,20.08
2017-12-23T09:12:24.234Z,18.05
2017-12-23T09:14:51.812Z,19.90
2017-12-23T09:17:19.322Z,18.55
2017-12-23T09:19:46.827Z,17.17
2017-12-23T09:22:14.345Z,16.70
2017-12-23T09:24:41.865Z,16.23
2017-12-23T09:27:09.361Z,15.27
2017-12-23T09:29:37.662Z,15.50
2017-12-23T09:32:05.170Z,19.40
2017-12-23T09:34:32.724Z,17.62
2017-12-23T09:37:00.251Z,18.52
2017-12-23T09:39:27.755Z,17.23
2017-12-23T09:41:55.265Z,16.40
2017-12-23T09:44:22.764Z,16.80
2017-12-23T09:46:50.304Z,16.48
2017-12-23T09:49:17.810Z,17.27
2017-12-23T09:51:45.335Z,17.02
2017-12-23T09:54:12.838Z,14.02
2017-12-23T09:56:41.121Z,15.70
2017-12-23T09:59:09.406Z,14.25
2017-12-23T10:01:36.915Z,16.50
2017-12-23T10:04:04.426Z,13.25
2017-12-23T10:06:31.936Z,13.70
2017-12-23T10:08:59.435Z,12.63
2017-12-23T10:11:27.816Z,14.80
2017-12-23T10:13:55.394Z,14.75
2017-12-23T10:16:22.916Z,15.68
2017-12-23T10:18:50.453Z,14.57
2017-12-23T10:21:17.981Z,12.93
2017-12-23T10:23:45.518Z,11.55
2017-12-23T10:26:13.015Z,11.90
2017-12-23T10:28:41.306Z,13.98
2017-12-23T10:31:08.812Z,11.10
2017-12-23T10:33:37.158Z,10.95
2017-12-23T10:36:04.692Z,10.70
2017-12-23T10:38:32.190Z,9.05
2017-12-23T10:41:00.515Z,9.50
2017-12-23T10:43:28.045Z,5.95
2017-12-23T10:45:55.568Z,7.62
2017-12-23T10:48:23.078Z,8.00
2017-12-23T10:50:50.614Z,8.35
2017-12-23T10:53:18.110Z,8.45
2017-12-23T10:55:45.647Z,6.03
2017-12-23T10:58:13.162Z,8.77
2017-12-23T11:00:40.714Z,4.15
2017-12-23T11:03:08.181Z,8.15
2017-12-23T11:05:38.966Z,6.45
2017-12-23T11:08:09.510Z,4.60
2017-12-23T11:10:40.301Z,6.47
2017-12-23T11:13:10.730Z,4.60
2017-12-23T11:15:40.334Z,4.95
2017-12-23T11:18:09.056Z,4.37
2017-12-23T11:20:37.746Z,4.35
2017-12-23T11:23:05.268Z,3.87
2017-12-23T11:25:32.901Z,4.62
2017-12-23T11:28:00.538Z,4.28
2017-12-23T11:30:28.032Z,4.80
2017-12-23T11:32:55.529Z,4.80
2017-12-23T11:35:23.045Z,3.87
2017-12-23T11:37:50.555Z,3.12
2017-12-23T11:40:18.195Z,4.30
2017-12-23T11:42:46.468Z,3.83
2017-12-23T11:45:13.968Z,3.80
2017-12-23T11:47:41.511Z,3.65
2017-12-23T11:50:09.033Z,4.70
2017-12-23T11:52:36.541Z,4.90
2017-12-23T11:55:04.061Z,4.55
2017-12-23T11:57:32.340Z,3.08
2017-12-23T11:59:59.839Z,3.70
2017-12-23T12:02:27.331Z,5.10
2017-12-23T12:04:55.674Z,3.95
2017-12-23T12:07:24.030Z,3.97
2017-12-23T12:09:52.291Z,3.90
2017-12-23T12:12:20.570Z,3.90
2017-12-23T12:14:48.064Z,3.53
2017-12-23T12:17:15.582Z,3.95
2017-12-23T12:19:43.071Z,4.00
2017-12-23T12:22:10.562Z,3.12
2017-12-23T12:24:38.492Z,3.45
2017-12-23T12:27:06.750Z,2.87
2017-12-23T12:29:35.032Z,3.20
2017-12-23T12:32:03.339Z,4.20
2017-12-23T12:34:31.086Z,4.10
2017-12-23T12:36:58.602Z,3.95
2017-12-23T12:39:26.119Z,3.65
2017-12-23T12:41:53.610Z,2.90
2017-12-23T12:44:21.113Z,4.40
2017-12-23T12:46:49.379Z,3.28
2017-12-23T12:49:16.897Z,3.80
2017-12-23T12:51:44.397Z,3.08
2017-12-23T12:54:11.998Z,4.87
2017-12-23T12:56:39.499Z,4.50
2017-12-23T12:59:07.019Z,4.32
2017-12-23T13:01:34.515Z,2.95
2017-12-23T13:04:02.023Z,3.65
2017-12-23T13:06:29.527Z,3.78
2017-12-23T13:08:57.803Z,3.80
2017-12-23T13:11:25.299Z,4.10
2017-12-23T13:13:53.574Z,5.35
2017-12-23T13:16:21.832Z,4.55
2017-12-23T13:18:49.339Z,4.47
2017-12-23T13:21:16.868Z,5.35
